sensor_id;sensor_type;location;lat;lon;timestamp;P1;durP1;ratioP1;P2;durP2;ratioP2
422;SDS011;198;48.752;9.180;2023-04-15T00:01:02;5.80;;;1.83;;
422;SDS011;198;48.752;9.180;2023-04-15T00:03:29;4.00;;;1.93;;
422;SDS011;198;48.752;9.180;2023-04-15T00:05:55;9.43;;;1.80;;
422;SDS011;198;48.752;9.180;2023-04-15T00:08:21;2.37;;;1.97;;
422;SDS011;198;48.752;9.180;2023-04-15T00:10:47;3.83;;;1.83;;
422;SDS011;198;48.752;9.180;2023-04-15T00:13:13;3.03;;;1.73;;
422;SDS011;198;48.752;9.180;2023-04-15T00:15:39;2.47;;;1.13;;
422;SDS011;198;48.752;9.180;2023-04-15T00:18:05;2.73;;;1.57;;
422;SDS011;198;48.752;9.180;2023-04-15T00:20:32;5.20;;;1.80;;
422;SDS011;198;48.752;9.180;2023-04-15T00:22:58;4.47;;;1.77;;
422;SDS011;198;48.752;9.180;2023-04-15T00:25:24;9.10;;;2.17;;
422;SDS011;198;48.752;9.180;2023-04-15T00:27:50;2.50;;;2.20;;
422;SDS011;198;48.752;9.180;2023-04-15T00:30:15;4.00;;;1.73;;
422;SDS011;198;48.752;9.180;2023-04-15T00:32:41;3.00;;;1.90;;
422;SDS011;198;48.752;9.180;2023-04-15T00:35:07;3.13;;;2.03;;
422;SDS011;198;48.752;9.180;2023-04-15T00:37:32;5.03;;;2.43;;
422;SDS011;198;48.752;9.180;2023-04-15T00:39:59;6.20;;;2.30;;
422;SDS011;198;48.752;9.180;2023-04-15T00:42:25;10.00;;;3.20;;
422;SDS011;198;48.752;9.180;2023-04-15T00:44:51;2.93;;;1.87;;
422;SDS011;198;48.752;9.180;2023-04-15T00:47:17;5.77;;;2.23;;
422;SDS011;198;48.752;9.180;2023-04-15T00:49:44;4.97;;;1.70;;
422;SDS011;198;48.752;9.180;2023-04-15T00:52:09;5.30;;;1.80;;
422;SDS011;198;48.752;9.180;2023-04-15T00:54:35;4.03;;;2.47;;
422;SDS011;198;48.752;9.180;2023-04-15T00:57:01;14.47;;;2.77;;
422;SDS011;198;48.752;9.180;2023-04-15T00:59:30;2.60;;;2.10;;
422;SDS011;198;48.752;9.180;2023-04-15T01:01:57;2.70;;;2.17;;
422;SDS011;198;48.752;9.180;2023-04-15T01:04:22;13.23;;;1.87;;
422;SDS011;198;48.752;9.180;2023-04-15T01:06:48;3.40;;;2.03;;
422;SDS011;198;48.752;9.180;2023-04-15T01:09:14;5.23;;;1.87;;
422;SDS011;198;48.752;9.180;2023-04-15T01:11:40;7.57;;;2.70;;
422;SDS011;198;48.752;9.180;2023-04-15T01:14:05;8.63;;;2.77;;
422;SDS011;198;48.752;9.180;2023-04-15T01:16:32;6.43;;;1.80;;
422;SDS011;198;48.752;9.180;2023-04-15T01:18:58;8.60;;;3.23;;
422;SDS011;198;48.752;9.180;2023-04-15T01:21:24;5.10;;;1.90;;
422;SDS011;198;48.752;9.180;2023-04-15T01:23:50;3.40;;;1.50;;
422;SDS011;198;48.752;9.180;2023-04-15T01:26:19;7.73;;;2.33;;
422;SDS011;198;48.752;9.180;2023-04-15T01:28:46;2.87;;;2.03;;
422;SDS011;198;48.752;9.180;2023-04-15T01:31:12;10.13;;;1.93;;
422;SDS011;198;48.752;9.180;2023-04-15T01:33:39;8.43;;;2.17;;
422;SDS011;198;48.752;9.180;2023-04-15T01:36:06;4.30;;;2.20;;
422;SDS011;198;48.752;9.180;2023-04-15T01:38:33;3.70;;;1.93;;
422;SDS011;198;48.752;9.180;2023-04-15T01:40:59;4.87;;;2.63;;
422;SDS011;198;48.752;9.180;2023-04-15T01:43:25;2.83;;;2.10;;
422;SDS011;198;48.752;9.180;2023-04-15T01:45:52;2.57;;;1.80;;
422;SDS011;198;48.752;9.180;2023-04-15T01:48:17;4.73;;;1.97;;
422;SDS011;198;48.752;9.180;2023-04-15T01:50:43;3.13;;;2.30;;
422;SDS011;198;48.752;9.180;2023-04-15T01:53:09;4.67;;;1.80;;
422;SDS011;198;48.752;9.180;2023-04-15T01:55:35;3.40;;;2.10;;
422;SDS011;198;48.752;9.180;2023-04-15T01:58:01;6.03;;;2.20;;
422;SDS011;198;48.752;9.180;2023-04-15T02:00:26;7.10;;;2.50;;
422;SDS011;198;48.752;9.180;2023-04-15T02:02:52;4.07;;;2.20;;
422;SDS011;198;48.752;9.180;2023-04-15T02:05:17;4.57;;;2.30;;
422;SDS011;198;48.752;9.180;2023-04-15T02:07:43;3.63;;;2.23;;
422;SDS011;198;48.752;9.180;2023-04-15T02:10:09;6.17;;;3.03;;
422;SDS011;198;48.752;9.180;2023-04-15T02:12:37;6.37;;;2.27;;
422;SDS011;198;48.752;9.180;2023-04-15T02:15:03;4.20;;;2.83;;
422;SDS011;198;48.752;9.180;2023-04-15T02:17:29;5.90;;;2.30;;
422;SDS011;198;48.752;9.180;2023-04-15T02:19:58;4.77;;;2.47;;
422;SDS011;198;48.752;9.180;2023-04-15T02:22:24;1.73;;;1.63;;
422;SDS011;198;48.752;9.180;2023-04-15T02:24:50;7.00;;;3.00;;
422;SDS011;198;48.752;9.180;2023-04-15T02:27:15;7.90;;;2.27;;
422;SDS011;198;48.752;9.180;2023-04-15T02:29:42;19.43;;;3.00;;
422;SDS011;198;48.752;9.180;2023-04-15T02:32:09;11.07;;;2.60;;
422;SDS011;198;48.752;9.180;2023-04-15T02:34:35;9.83;;;2.33;;
422;SDS011;198;48.752;9.180;2023-04-15T02:37:03;4.20;;;2.40;;
422;SDS011;198;48.752;9.180;2023-04-15T02:39:29;5.10;;;2.30;;
422;SDS011;198;48.752;9.180;2023-04-15T02:41:54;9.93;;;2.80;;
422;SDS011;198;48.752;9.180;2023-04-15T02:44:23;9.83;;;3.93;;
422;SDS011;198;48.752;9.180;2023-04-15T02:46:48;8.77;;;3.20;;
422;SDS011;198;48.752;9.180;2023-04-15T02:49:16;19.13;;;2.43;;
422;SDS011;198;48.752;9.180;2023-04-15T02:51:42;5.70;;;3.20;;
422;SDS011;198;48.752;9.180;2023-04-15T02:54:12;7.37;;;3.30;;
422;SDS011;198;48.752;9.180;2023-04-15T02:56:38;6.43;;;2.90;;
422;SDS011;198;48.752;9.180;2023-04-15T02:59:04;9.53;;;3.37;;
422;SDS011;198;48.752;9.180;2023-04-15T03:01:30;6.00;;;3.00;;
422;SDS011;198;48.752;9.180;2023-04-15T03:03:55;11.13;;;2.93;;
422;SDS011;198;48.752;9.180;2023-04-15T03:06:21;5.53;;;2.97;;
422;SDS011;198;48.752;9.180;2023-04-15T03:08:46;6.10;;;2.80;;
422;SDS011;198;48.752;9.180;2023-04-15T03:11:13;6.00;;;2.50;;
422;SDS011;198;48.752;9.180;2023-04-15T03:13:40;16.33;;;2.50;;
422;SDS011;198;48.752;9.180;2023-04-15T03:16:07;3.60;;;2.37;;
422;SDS011;198;48.752;9.180;2023-04-15T03:18:33;10.03;;;2.20;;
422;SDS011;198;48.752;9.180;2023-04-15T03:20:58;5.20;;;2.70;;
422;SDS011;198;48.752;9.180;2023-04-15T03:23:24;3.83;;;2.23;;
422;SDS011;198;48.752;9.180;2023-04-15T03:25:49;3.10;;;2.17;;
422;SDS011;198;48.752;9.180;2023-04-15T03:28:15;4.57;;;2.03;;
422;SDS011;198;48.752;9.180;2023-04-15T03:30:40;4.73;;;2.23;;
422;SDS011;198;48.752;9.180;2023-04-15T03:33:06;7.20;;;2.13;;
422;SDS011;198;48.752;9.180;2023-04-15T03:35:32;5.60;;;2.20;;
422;SDS011;198;48.752;9.180;2023-04-15T03:37:58;10.93;;;2.30;;
422;SDS011;198;48.752;9.180;2023-04-15T03:40:24;9.50;;;2.83;;
422;SDS011;198;48.752;9.180;2023-04-15T03:42:49;3.17;;;1.80;;
422;SDS011;198;48.752;9.180;2023-04-15T03:45:15;5.40;;;2.00;;
422;SDS011;198;48.752;9.180;2023-04-15T03:47:40;16.97;;;2.10;;
422;SDS011;198;48.752;9.180;2023-04-15T03:50:06;3.80;;;1.80;;
422;SDS011;198;48.752;9.180;2023-04-15T03:52:32;1.60;;;1.43;;
422;SDS011;198;48.752;9.180;2023-04-15T03:54:58;12.93;;;2.53;;
422;SDS011;198;48.752;9.180;2023-04-15T03:57:23;4.33;;;1.93;;
422;SDS011;198;48.752;9.180;2023-04-15T03:59:49;3.63;;;1.60;;
422;SDS011;198;48.752;9.180;2023-04-15T04:02:15;5.13;;;1.90;;
422;SDS011;198;48.752;9.180;2023-04-15T04:04:41;7.30;;;1.93;;
422;SDS011;198;48.752;9.180;2023-04-15T04:07:07;3.90;;;2.07;;
422;SDS011;198;48.752;9.180;2023-04-15T04:09:33;8.10;;;1.83;;
422;SDS011;198;48.752;9.180;2023-04-15T04:11:58;5.80;;;1.90;;
422;SDS011;198;48.752;9.180;2023-04-15T04:14:24;4.00;;;1.97;;
422;SDS011;198;48.752;9.180;2023-04-15T04:16:53;9.77;;;2.10;;
422;SDS011;198;48.752;9.180;2023-04-15T04:19:19;3.87;;;2.00;;
422;SDS011;198;48.752;9.180;2023-04-15T04:21:45;6.40;;;2.20;;
422;SDS011;198;48.752;9.180;2023-04-15T04:24:10;3.00;;;1.70;;
422;SDS011;198;48.752;9.180;2023-04-15T04:26:36;3.03;;;1.57;;
422;SDS011;198;48.752;9.180;2023-04-15T04:29:01;3.57;;;2.07;;
422;SDS011;198;48.752;9.180;2023-04-15T04:31:27;3.40;;;1.90;;
422;SDS011;198;48.752;9.180;2023-04-15T04:33:52;5.30;;;2.40;;
422;SDS011;198;48.752;9.180;2023-04-15T04:36:18;2.97;;;1.53;;
422;SDS011;198;48.752;9.180;2023-04-15T04:38:43;3.37;;;1.80;;
422;SDS011;198;48.752;9.180;2023-04-15T04:41:09;4.30;;;2.17;;
422;SDS011;198;48.752;9.180;2023-04-15T04:43:34;5.90;;;1.80;;
422;SDS011;198;48.752;9.180;2023-04-15T04:46:00;4.43;;;2.07;;
422;SDS011;198;48.752;9.180;2023-04-15T04:48:26;2.03;;;1.80;;
422;SDS011;198;48.752;9.180;2023-04-15T04:50:51;5.20;;;1.40;;
422;SDS011;198;48.752;9.180;2023-04-15T04:53:17;5.80;;;2.07;;
422;SDS011;198;48.752;9.180;2023-04-15T04:55:42;3.37;;;1.70;;
422;SDS011;198;48.752;9.180;2023-04-15T04:58:08;6.47;;;1.70;;
422;SDS011;198;48.752;9.180;2023-04-15T05:00:33;9.03;;;1.70;;
422;SDS011;198;48.752;9.180;2023-04-15T05:02:59;6.40;;;1.93;;
422;SDS011;198;48.752;9.180;2023-04-15T05:05:25;3.17;;;1.90;;
422;SDS011;198;48.752;9.180;2023-04-15T05:07:50;3.00;;;1.50;;
422;SDS011;198;48.752;9.180;2023-04-15T05:10:16;5.13;;;1.97;;
422;SDS011;198;48.752;9.180;2023-04-15T05:12:42;5.30;;;3.33;;
422;SDS011;198;48.752;9.180;2023-04-15T05:15:08;2.40;;;2.00;;
422;SDS011;198;48.752;9.180;2023-04-15T05:17:34;2.30;;;1.87;;
422;SDS011;198;48.752;9.180;2023-04-15T05:19:59;4.67;;;2.30;;
422;SDS011;198;48.752;9.180;2023-04-15T05:22:26;2.60;;;2.07;;
422;SDS011;198;48.752;9.180;2023-04-15T05:24:51;27.03;;;2.70;;
422;SDS011;198;48.752;9.180;2023-04-15T05:27:17;3.83;;;1.97;;
422;SDS011;198;48.752;9.180;2023-04-15T05:29:43;9.73;;;2.67;;
422;SDS011;198;48.752;9.180;2023-04-15T05:32:09;3.00;;;1.90;;
422;SDS011;198;48.752;9.180;2023-04-15T05:34:34;10.93;;;2.43;;
422;SDS011;198;48.752;9.180;2023-04-15T05:37:00;3.10;;;1.90;;
422;SDS011;198;48.752;9.180;2023-04-15T05:39:26;3.60;;;2.37;;
422;SDS011;198;48.752;9.180;2023-04-15T05:41:51;8.57;;;3.53;;
422;SDS011;198;48.752;9.180;2023-04-15T05:44:17;3.80;;;2.53;;
422;SDS011;198;48.752;9.180;2023-04-15T05:46:42;15.57;;;2.60;;
422;SDS011;198;48.752;9.180;2023-04-15T05:49:08;7.10;;;2.73;;
422;SDS011;198;48.752;9.180;2023-04-15T05:51:33;6.93;;;3.40;;
422;SDS011;198;48.752;9.180;2023-04-15T05:53:59;2.70;;;2.50;;
422;SDS011;198;48.752;9.180;2023-04-15T05:56:25;22.33;;;3.40;;
422;SDS011;198;48.752;9.180;2023-04-15T05:58:51;10.30;;;3.83;;
422;SDS011;198;48.752;9.180;2023-04-15T06:01:17;9.03;;;4.40;;
422;SDS011;198;48.752;9.180;2023-04-15T06:03:42;9.33;;;3.50;;
422;SDS011;198;48.752;9.180;2023-04-15T06:06:08;12.73;;;3.70;;
422;SDS011;198;48.752;9.180;2023-04-15T06:08:34;8.70;;;3.80;;
422;SDS011;198;48.752;9.180;2023-04-15T06:10:59;12.73;;;4.30;;
422;SDS011;198;48.752;9.180;2023-04-15T06:13:25;17.17;;;3.20;;
422;SDS011;198;48.752;9.180;2023-04-15T06:15:51;10.60;;;3.80;;
422;SDS011;198;48.752;9.180;2023-04-15T06:18:17;8.17;;;3.40;;
422;SDS011;198;48.752;9.180;2023-04-15T06:20:42;7.83;;;3.70;;
422;SDS011;198;48.752;9.180;2023-04-15T06:23:08;6.13;;;2.80;;
422;SDS011;198;48.752;9.180;2023-04-15T06:25:33;7.23;;;3.30;;
422;SDS011;198;48.752;9.180;2023-04-15T06:27:59;6.47;;;3.73;;
422;SDS011;198;48.752;9.180;2023-04-15T06:30:24;4.60;;;2.30;;
422;SDS011;198;48.752;9.180;2023-04-15T06:32:50;4.77;;;3.40;;
422;SDS011;198;48.752;9.180;2023-04-15T06:35:16;3.63;;;2.40;;
422;SDS011;198;48.752;9.180;2023-04-15T06:37:42;4.30;;;2.57;;
422;SDS011;198;48.752;9.180;2023-04-15T06:40:08;9.27;;;2.40;;
422;SDS011;198;48.752;9.180;2023-04-15T06:42:34;6.47;;;2.70;;
422;SDS011;198;48.752;9.180;2023-04-15T06:45:00;2.57;;;1.90;;
422;SDS011;198;48.752;9.180;2023-04-15T06:47:26;8.37;;;2.00;;
422;SDS011;198;48.752;9.180;2023-04-15T06:49:51;2.60;;;2.40;;
422;SDS011;198;48.752;9.180;2023-04-15T06:52:17;6.80;;;2.47;;
422;SDS011;198;48.752;9.180;2023-04-15T06:54:43;6.40;;;2.50;;
422;SDS011;198;48.752;9.180;2023-04-15T06:57:08;8.90;;;1.90;;
422;SDS011;198;48.752;9.180;2023-04-15T06:59:34;4.83;;;2.40;;
422;SDS011;198;48.752;9.180;2023-04-15T07:02:00;3.83;;;1.57;;
422;SDS011;198;48.752;9.180;2023-04-15T07:04:25;6.40;;;2.17;;
422;SDS011;198;48.752;9.180;2023-04-15T07:06:51;17.03;;;1.70;;
422;SDS011;198;48.752;9.180;2023-04-15T07:09:18;7.17;;;1.73;;
422;SDS011;198;48.752;9.180;2023-04-15T07:11:43;3.10;;;1.33;;
422;SDS011;198;48.752;9.180;2023-04-15T07:14:09;9.63;;;1.50;;
422;SDS011;198;48.752;9.180;2023-04-15T07:16:34;3.77;;;1.50;;
422;SDS011;198;48.752;9.180;2023-04-15T07:19:00;6.40;;;1.90;;
422;SDS011;198;48.752;9.180;2023-04-15T07:21:26;4.80;;;1.90;;
422;SDS011;198;48.752;9.180;2023-04-15T07:23:51;5.47;;;1.87;;
422;SDS011;198;48.752;9.180;2023-04-15T07:26:17;6.80;;;2.20;;
422;SDS011;198;48.752;9.180;2023-04-15T07:28:42;3.97;;;1.77;;
422;SDS011;198;48.752;9.180;2023-04-15T07:31:10;12.30;;;2.17;;
422;SDS011;198;48.752;9.180;2023-04-15T07:33:35;3.03;;;1.40;;
422;SDS011;198;48.752;9.180;2023-04-15T07:36:01;7.60;;;1.63;;
422;SDS011;198;48.752;9.180;2023-04-15T07:38:27;3.23;;;1.20;;
422;SDS011;198;48.752;9.180;2023-04-15T07:40:52;3.50;;;1.87;;
422;SDS011;198;48.752;9.180;2023-04-15T07:43:18;4.43;;;1.77;;
422;SDS011;198;48.752;9.180;2023-04-15T07:45:45;5.67;;;1.73;;
422;SDS011;198;48.752;9.180;2023-04-15T07:48:10;4.80;;;1.70;;
422;SDS011;198;48.752;9.180;2023-04-15T07:50:36;3.20;;;2.13;;
422;SDS011;198;48.752;9.180;2023-04-15T07:53:02;6.80;;;2.17;;
422;SDS011;198;48.752;9.180;2023-04-15T07:55:27;6.07;;;3.50;;
422;SDS011;198;48.752;9.180;2023-04-15T07:57:54;11.10;;;3.23;;
422;SDS011;198;48.752;9.180;2023-04-15T08:00:20;5.03;;;2.70;;
422;SDS011;198;48.752;9.180;2023-04-15T08:02:46;4.83;;;2.30;;
422;SDS011;198;48.752;9.180;2023-04-15T08:05:12;13.53;;;2.57;;
422;SDS011;198;48.752;9.180;2023-04-15T08:07:38;6.30;;;2.50;;
422;SDS011;198;48.752;9.180;2023-04-15T08:10:04;6.93;;;3.17;;
422;SDS011;198;48.752;9.180;2023-04-15T08:12:30;7.33;;;2.80;;
422;SDS011;198;48.752;9.180;2023-04-15T08:14:56;4.10;;;2.40;;
422;SDS011;198;48.752;9.180;2023-04-15T08:17:22;4.20;;;1.90;;
422;SDS011;198;48.752;9.180;2023-04-15T08:19:48;6.20;;;2.13;;
422;SDS011;198;48.752;9.180;2023-04-15T08:22:13;10.90;;;2.70;;
422;SDS011;198;48.752;9.180;2023-04-15T08:24:39;5.80;;;2.37;;
422;SDS011;198;48.752;9.180;2023-04-15T08:27:05;4.20;;;2.53;;
422;SDS011;198;48.752;9.180;2023-04-15T08:29:31;4.70;;;2.13;;
422;SDS011;198;48.752;9.180;2023-04-15T08:32:00;5.77;;;2.33;;
422;SDS011;198;48.752;9.180;2023-04-15T08:34:26;9.30;;;2.40;;
422;SDS011;198;48.752;9.180;2023-04-15T08:36:52;9.73;;;3.00;;
422;SDS011;198;48.752;9.180;2023-04-15T08:39:17;8.43;;;1.90;;
422;SDS011;198;48.752;9.180;2023-04-15T08:41:51;5.03;;;2.10;;
422;SDS011;198;48.752;9.180;2023-04-15T08:44:28;7.17;;;2.60;;
422;SDS011;198;48.752;9.180;2023-04-15T08:46:55;4.93;;;2.40;;
422;SDS011;198;48.752;9.180;2023-04-15T08:49:25;2.90;;;1.93;;
422;SDS011;198;48.752;9.180;2023-04-15T08:51:52;7.77;;;2.10;;
422;SDS011;198;48.752;9.180;2023-04-15T08:54:18;3.00;;;2.23;;
422;SDS011;198;48.752;9.180;2023-04-15T08:56:44;4.33;;;2.10;;
422;SDS011;198;48.752;9.180;2023-04-15T08:59:10;3.73;;;2.10;;
422;SDS011;198;48.752;9.180;2023-04-15T09:01:36;6.30;;;2.83;;
422;SDS011;198;48.752;9.180;2023-04-15T09:04:02;11.10;;;2.50;;
422;SDS011;198;48.752;9.180;2023-04-15T09:06:31;7.73;;;3.00;;
422;SDS011;198;48.752;9.180;2023-04-15T09:08:57;2.73;;;1.67;;
422;SDS011;198;48.752;9.180;2023-04-15T09:11:23;5.90;;;2.10;;
422;SDS011;198;48.752;9.180;2023-04-15T09:13:49;4.53;;;2.60;;
422;SDS011;198;48.752;9.180;2023-04-15T09:16:15;9.83;;;2.37;;
422;SDS011;198;48.752;9.180;2023-04-15T09:18:41;4.23;;;1.90;;
422;SDS011;198;48.752;9.180;2023-04-15T09:21:11;5.93;;;2.30;;
422;SDS011;198;48.752;9.180;2023-04-15T09:23:39;5.00;;;2.50;;
422;SDS011;198;48.752;9.180;2023-04-15T09:26:17;5.27;;;2.43;;
422;SDS011;198;48.752;9.180;2023-04-15T09:28:42;9.40;;;2.60;;
422;SDS011;198;48.752;9.180;2023-04-15T09:31:08;2.73;;;1.97;;
422;SDS011;198;48.752;9.180;2023-04-15T09:33:34;5.23;;;2.90;;
422;SDS011;198;48.752;9.180;2023-04-15T09:36:04;6.53;;;2.80;;
422;SDS011;198;48.752;9.180;2023-04-15T09:38:30;6.40;;;2.50;;
422;SDS011;198;48.752;9.180;2023-04-15T09:40:57;4.73;;;2.30;;
422;SDS011;198;48.752;9.180;2023-04-15T09:43:39;6.27;;;2.90;;
422;SDS011;198;48.752;9.180;2023-04-15T09:46:04;7.20;;;2.13;;
422;SDS011;198;48.752;9.180;2023-04-15T09:48:30;5.47;;;1.87;;
422;SDS011;198;48.752;9.180;2023-04-15T09:50:59;3.50;;;2.00;;
422;SDS011;198;48.752;9.180;2023-04-15T09:53:25;3.17;;;1.70;;
422;SDS011;198;48.752;9.180;2023-04-15T09:55:55;4.47;;;2.07;;
422;SDS011;198;48.752;9.180;2023-04-15T09:58:23;5.63;;;2.63;;
422;SDS011;198;48.752;9.180;2023-04-15T10:00:51;12.33;;;2.83;;
422;SDS011;198;48.752;9.180;2023-04-15T10:03:21;9.00;;;2.57;;
422;SDS011;198;48.752;9.180;2023-04-15T10:05:51;2.73;;;2.20;;
422;SDS011;198;48.752;9.180;2023-04-15T10:08:20;5.70;;;2.57;;
422;SDS011;198;48.752;9.180;2023-04-15T10:10:50;4.07;;;2.00;;
422;SDS011;198;48.752;9.180;2023-04-15T10:13:17;5.30;;;1.90;;
422;SDS011;198;48.752;9.180;2023-04-15T10:15:57;4.43;;;1.80;;
422;SDS011;198;48.752;9.180;2023-04-15T10:18:25;4.00;;;1.70;;
422;SDS011;198;48.752;9.180;2023-04-15T10:20:51;7.50;;;1.87;;
422;SDS011;198;48.752;9.180;2023-04-15T10:23:18;2.70;;;2.00;;
422;SDS011;198;48.752;9.180;2023-04-15T10:25:45;6.43;;;1.60;;
422;SDS011;198;48.752;9.180;2023-04-15T10:28:12;6.63;;;2.23;;
422;SDS011;198;48.752;9.180;2023-04-15T10:30:40;3.83;;;1.80;;
422;SDS011;198;48.752;9.180;2023-04-15T10:33:06;2.97;;;1.87;;
422;SDS011;198;48.752;9.180;2023-04-15T10:35:33;13.90;;;2.03;;
422;SDS011;198;48.752;9.180;2023-04-15T10:38:00;4.87;;;2.43;;
422;SDS011;198;48.752;9.180;2023-04-15T10:40:26;6.17;;;1.93;;
422;SDS011;198;48.752;9.180;2023-04-15T10:42:59;4.33;;;2.20;;
422;SDS011;198;48.752;9.180;2023-04-15T10:45:33;5.93;;;2.43;;
422;SDS011;198;48.752;9.180;2023-04-15T10:48:01;5.80;;;1.77;;
422;SDS011;198;48.752;9.180;2023-04-15T10:50:29;3.93;;;2.23;;
422;SDS011;198;48.752;9.180;2023-04-15T10:52:55;10.87;;;2.30;;
422;SDS011;198;48.752;9.180;2023-04-15T10:55:30;6.20;;;2.33;;
422;SDS011;198;48.752;9.180;2023-04-15T10:57:58;10.00;;;2.47;;
422;SDS011;198;48.752;9.180;2023-04-15T11:00:26;3.70;;;2.60;;
422;SDS011;198;48.752;9.180;2023-04-15T11:05:21;4.43;;;2.47;;
422;SDS011;198;48.752;9.180;2023-04-15T11:08:08;5.63;;;2.53;;
422;SDS011;198;48.752;9.180;2023-04-15T11:13:46;6.10;;;2.43;;
422;SDS011;198;48.752;9.180;2023-04-15T11:15:53;6.40;;;2.17;;
422;SDS011;198;48.752;9.180;2023-04-15T11:18:21;4.20;;;2.20;;
422;SDS011;198;48.752;9.180;2023-04-15T11:20:48;4.37;;;2.87;;
422;SDS011;198;48.752;9.180;2023-04-15T11:23:16;5.57;;;2.50;;
422;SDS011;198;48.752;9.180;2023-04-15T11:25:43;6.20;;;3.00;;
422;SDS011;198;48.752;9.180;2023-04-15T11:28:09;2.93;;;1.53;;
422;SDS011;198;48.752;9.180;2023-04-15T11:30:36;6.53;;;3.20;;
422;SDS011;198;48.752;9.180;2023-04-15T11:33:03;3.50;;;2.30;;
422;SDS011;198;48.752;9.180;2023-04-15T11:35:30;2.33;;;2.13;;
422;SDS011;198;48.752;9.180;2023-04-15T11:37:58;4.33;;;2.40;;
422;SDS011;198;48.752;9.180;2023-04-15T11:40:32;7.23;;;2.27;;
422;SDS011;198;48.752;9.180;2023-04-15T11:45:35;12.43;;;2.20;;
422;SDS011;198;48.752;9.180;2023-04-15T11:48:21;5.17;;;2.30;;
422;SDS011;198;48.752;9.180;2023-04-15T11:50:55;6.07;;;2.10;;
422;SDS011;198;48.752;9.180;2023-04-15T11:53:41;5.30;;;2.30;;
422;SDS011;198;48.752;9.180;2023-04-15T11:56:18;7.50;;;2.73;;
422;SDS011;198;48.752;9.180;2023-04-15T11:58:48;7.63;;;2.53;;
422;SDS011;198;48.752;9.180;2023-04-15T12:01:17;3.40;;;2.40;;
422;SDS011;198;48.752;9.180;2023-04-15T12:03:44;6.20;;;2.70;;
422;SDS011;198;48.752;9.180;2023-04-15T12:06:14;7.37;;;3.10;;
422;SDS011;198;48.752;9.180;2023-04-15T12:08:50;6.33;;;2.77;;
422;SDS011;198;48.752;9.180;2023-04-15T12:13:52;5.47;;;3.23;;
422;SDS011;198;48.752;9.180;2023-04-15T12:16:19;4.70;;;2.50;;
422;SDS011;198;48.752;9.180;2023-04-15T12:18:45;4.97;;;3.10;;
422;SDS011;198;48.752;9.180;2023-04-15T12:21:12;5.80;;;3.30;;
422;SDS011;198;48.752;9.180;2023-04-15T12:23:47;5.50;;;2.53;;
422;SDS011;198;48.752;9.180;2023-04-15T12:26:14;4.70;;;2.40;;
422;SDS011;198;48.752;9.180;2023-04-15T12:28:41;9.00;;;2.67;;
422;SDS011;198;48.752;9.180;2023-04-15T12:31:06;15.00;;;3.63;;
422;SDS011;198;48.752;9.180;2023-04-15T12:33:33;14.60;;;3.40;;
422;SDS011;198;48.752;9.180;2023-04-15T12:35:59;4.73;;;2.60;;
422;SDS011;198;48.752;9.180;2023-04-15T12:38:24;7.53;;;2.23;;
422;SDS011;198;48.752;9.180;2023-04-15T12:40:50;5.00;;;2.33;;
422;SDS011;198;48.752;9.180;2023-04-15T12:43:15;8.33;;;2.50;;
422;SDS011;198;48.752;9.180;2023-04-15T12:45:41;4.57;;;2.23;;
422;SDS011;198;48.752;9.180;2023-04-15T12:48:06;5.17;;;2.70;;
422;SDS011;198;48.752;9.180;2023-04-15T12:50:33;7.70;;;2.63;;
422;SDS011;198;48.752;9.180;2023-04-15T12:53:02;4.70;;;2.53;;
422;SDS011;198;48.752;9.180;2023-04-15T12:55:27;4.30;;;2.50;;
422;SDS011;198;48.752;9.180;2023-04-15T12:57:54;4.17;;;2.17;;
422;SDS011;198;48.752;9.180;2023-04-15T13:00:20;8.30;;;2.50;;
422;SDS011;198;48.752;9.180;2023-04-15T13:02:46;4.60;;;2.60;;
422;SDS011;198;48.752;9.180;2023-04-15T13:05:12;4.63;;;3.10;;
422;SDS011;198;48.752;9.180;2023-04-15T13:07:39;2.30;;;2.13;;
422;SDS011;198;48.752;9.180;2023-04-15T13:10:05;2.83;;;2.53;;
422;SDS011;198;48.752;9.180;2023-04-15T13:12:31;7.00;;;1.90;;
422;SDS011;198;48.752;9.180;2023-04-15T13:15:00;2.03;;;1.90;;
422;SDS011;198;48.752;9.180;2023-04-15T13:17:26;10.63;;;2.27;;
422;SDS011;198;48.752;9.180;2023-04-15T13:19:51;4.97;;;1.83;;
422;SDS011;198;48.752;9.180;2023-04-15T13:22:17;1.97;;;1.67;;
422;SDS011;198;48.752;9.180;2023-04-15T13:24:43;4.90;;;1.73;;
422;SDS011;198;48.752;9.180;2023-04-15T13:27:08;5.87;;;1.83;;
422;SDS011;198;48.752;9.180;2023-04-15T13:29:33;5.93;;;2.20;;
422;SDS011;198;48.752;9.180;2023-04-15T13:31:59;2.33;;;1.67;;
422;SDS011;198;48.752;9.180;2023-04-15T13:34:25;3.40;;;2.10;;
422;SDS011;198;48.752;9.180;2023-04-15T13:36:50;2.60;;;2.03;;
422;SDS011;198;48.752;9.180;2023-04-15T13:39:16;3.03;;;2.00;;
422;SDS011;198;48.752;9.180;2023-04-15T13:41:41;8.03;;;1.97;;
422;SDS011;198;48.752;9.180;2023-04-15T13:44:07;2.17;;;1.60;;
422;SDS011;198;48.752;9.180;2023-04-15T13:46:32;3.40;;;2.73;;
422;SDS011;198;48.752;9.180;2023-04-15T13:48:58;1.87;;;1.40;;
422;SDS011;198;48.752;9.180;2023-04-15T13:51:23;4.90;;;2.03;;
422;SDS011;198;48.752;9.180;2023-04-15T13:53:49;10.73;;;2.03;;
422;SDS011;198;48.752;9.180;2023-04-15T13:56:14;3.90;;;1.80;;
422;SDS011;198;48.752;9.180;2023-04-15T13:58:40;1.40;;;1.13;;
422;SDS011;198;48.752;9.180;2023-04-15T14:01:05;1.83;;;1.70;;
422;SDS011;198;48.752;9.180;2023-04-15T14:03:31;3.03;;;1.80;;
422;SDS011;198;48.752;9.180;2023-04-15T14:05:57;4.07;;;1.70;;
422;SDS011;198;48.752;9.180;2023-04-15T14:08:23;21.80;;;1.70;;
422;SDS011;198;48.752;9.180;2023-04-15T14:10:49;1.10;;;1.00;;
422;SDS011;198;48.752;9.180;2023-04-15T14:13:15;2.13;;;1.40;;
422;SDS011;198;48.752;9.180;2023-04-15T14:15:40;2.50;;;1.00;;
422;SDS011;198;48.752;9.180;2023-04-15T14:18:06;5.10;;;1.60;;
422;SDS011;198;48.752;9.180;2023-04-15T14:20:32;3.37;;;1.83;;
422;SDS011;198;48.752;9.180;2023-04-15T14:22:57;2.40;;;1.30;;
422;SDS011;198;48.752;9.180;2023-04-15T14:25:23;1.53;;;1.37;;
422;SDS011;198;48.752;9.180;2023-04-15T14:27:50;3.20;;;1.10;;
422;SDS011;198;48.752;9.180;2023-04-15T14:30:16;1.77;;;1.50;;
422;SDS011;198;48.752;9.180;2023-04-15T14:32:41;5.73;;;1.17;;
422;SDS011;198;48.752;9.180;2023-04-15T14:35:07;2.57;;;1.20;;
422;SDS011;198;48.752;9.180;2023-04-15T14:37:33;1.43;;;1.27;;
422;SDS011;198;48.752;9.180;2023-04-15T14:39:58;3.60;;;1.80;;
422;SDS011;198;48.752;9.180;2023-04-15T14:42:24;3.80;;;1.47;;
422;SDS011;198;48.752;9.180;2023-04-15T14:44:49;1.10;;;1.10;;
422;SDS011;198;48.752;9.180;2023-04-15T14:47:15;1.17;;;1.10;;
422;SDS011;198;48.752;9.180;2023-04-15T14:49:41;1.53;;;1.40;;
422;SDS011;198;48.752;9.180;2023-04-15T14:52:06;1.57;;;1.13;;
422;SDS011;198;48.752;9.180;2023-04-15T14:54:32;1.20;;;1.10;;
422;SDS011;198;48.752;9.180;2023-04-15T14:56:57;1.97;;;1.50;;
422;SDS011;198;48.752;9.180;2023-04-15T14:59:23;7.73;;;1.50;;
422;SDS011;198;48.752;9.180;2023-04-15T15:01:48;8.07;;;1.40;;
422;SDS011;198;48.752;9.180;2023-04-15T15:04:14;2.30;;;1.50;;
422;SDS011;198;48.752;9.180;2023-04-15T15:06:40;2.10;;;1.43;;
422;SDS011;198;48.752;9.180;2023-04-15T15:09:06;5.33;;;1.77;;
422;SDS011;198;48.752;9.180;2023-04-15T15:11:31;3.13;;;1.60;;
422;SDS011;198;48.752;9.180;2023-04-15T15:13:57;2.83;;;1.53;;
422;SDS011;198;48.752;9.180;2023-04-15T15:16:23;2.90;;;1.60;;
422;SDS011;198;48.752;9.180;2023-04-15T15:18:49;2.03;;;1.50;;
422;SDS011;198;48.752;9.180;2023-04-15T15:21:15;5.63;;;2.13;;
422;SDS011;198;48.752;9.180;2023-04-15T15:23:40;2.50;;;1.63;;
422;SDS011;198;48.752;9.180;2023-04-15T15:26:06;6.40;;;1.60;;
422;SDS011;198;48.752;9.180;2023-04-15T15:28:32;1.57;;;1.27;;
422;SDS011;198;48.752;9.180;2023-04-15T15:30:58;1.80;;;1.70;;
422;SDS011;198;48.752;9.180;2023-04-15T15:33:24;7.13;;;1.40;;
422;SDS011;198;48.752;9.180;2023-04-15T15:35:49;1.23;;;1.13;;
422;SDS011;198;48.752;9.180;2023-04-15T15:38:15;3.27;;;1.73;;
422;SDS011;198;48.752;9.180;2023-04-15T15:40:40;5.73;;;2.20;;
422;SDS011;198;48.752;9.180;2023-04-15T15:43:06;5.17;;;1.20;;
422;SDS011;198;48.752;9.180;2023-04-15T15:45:31;4.67;;;1.90;;
422;SDS011;198;48.752;9.180;2023-04-15T15:47:57;4.00;;;1.63;;
422;SDS011;198;48.752;9.180;2023-04-15T15:50:23;2.17;;;1.63;;